Time;durP1;ratioP1;P1;durP2;ratioP2;P2;SDS_P1;SDS_P2;PMS_P1;PMS_P2;Temp;Humidity;BMP_temperature;BMP_pressure;BME280_temperature;BME280_humidity;BME280_pressure;Samples;Min_cycle;Max_cycle;Signal;HPM_P1;HPM_P2
2023/08/05 00:01:53;;;;;;;4.33;4.13;;;16.40;71.20;;;;;;6226780;28;20247;-85
2023/08/05 00:04:56;;;;;;;4.50;4.20;;;16.40;71.30;;;;;;6228356;28;20286;-82
2023/08/05 00:07:59;;;;;;;4.50;4.23;;;16.40;71.40;;;;;;6231232;28;20277;-84
2023/08/05 00:11:16;;;;;;;4.50;4.30;;;16.30;71.50;;;;;;6232875;28;20246;-84
2023/08/05 00:14:20;;;;;;;4.77;4.30;;;16.30;71.80;;;;;;6228467;28;20243;-83
2023/08/05 00:17:23;;;;;;;4.97;4.60;;;16.20;72.10;;;;;;6236097;28;20908;-85
2023/08/05 00:20:26;;;;;;;4.23;4.03;;;16.20;72.10;;;;;;6231576;28;20226;-83
2023/08/05 00:23:30;;;;;;;4.07;3.77;;;16.20;71.90;;;;;;6229561;28;20316;-84
2023/08/05 00:26:34;;;;;;;4.47;4.27;;;16.20;71.90;;;;;;6213905;28;20234;-85
2023/08/05 00:29:37;;;;;;;4.47;4.17;;;16.20;71.90;;;;;;6222992;28;20261;-86
2023/08/05 00:32:40;;;;;;;4.60;4.40;;;16.10;71.90;;;;;;6220299;28;20731;-84
2023/08/05 00:35:44;;;;;;;4.20;4.03;;;16.10;71.90;;;;;;6213963;28;20243;-85
2023/08/05 00:38:47;;;;;;;4.77;4.57;;;16.10;72.10;;;;;;6231043;28;20232;-85
2023/08/05 00:41:51;;;;;;;4.70;4.43;;;16.00;72.20;;;;;;6219757;28;20234;-81
2023/08/05 00:44:55;;;;;;;4.43;4.33;;;16.00;72.40;;;;;;6226922;28;20250;-83
2023/08/05 00:47:58;;;;;;;4.07;3.80;;;16.00;72.60;;;;;;6238632;28;20242;-83
2023/08/05 00:51:03;;;;;;;4.13;4.03;;;15.90;72.70;;;;;;6225652;28;20716;-84
2023/08/05 00:54:08;;;;;;;3.80;3.70;;;15.90;72.80;;;;;;6221198;28;20270;-84
2023/08/05 00:57:14;;;;;;;4.80;4.47;;;15.90;72.80;;;;;;6227863;28;20357;-84
2023/08/05 01:00:17;;;;;;;3.50;3.40;;;15.90;72.70;;;;;;6224221;28;20222;-80
2023/08/05 01:03:20;;;;;;;3.97;3.77;;;15.90;72.70;;;;;;6229798;28;20723;-83
2023/08/05 01:06:25;;;;;;;3.70;3.50;;;15.80;72.60;;;;;;6228894;28;20261;-84
2023/08/05 01:09:29;;;;;;;3.93;3.60;;;15.80;72.70;;;;;;6220418;28;20230;-83
2023/08/05 01:12:34;;;;;;;4.63;3.70;;;15.90;72.60;;;;;;6235199;28;20241;-84
2023/08/05 01:15:37;;;;;;;3.97;3.67;;;15.80;72.60;;;;;;6230564;28;20306;-84
2023/08/05 01:18:41;;;;;;;3.97;3.73;;;15.80;72.50;;;;;;6226281;28;20332;-84
2023/08/05 01:21:53;;;;;;;3.80;3.67;;;15.90;72.50;;;;;;6220291;28;20711;-83
2023/08/05 01:25:03;;;;;;;3.77;3.67;;;16.00;72.30;;;;;;6216114;28;20619;-82
2023/08/05 01:28:08;;;;;;;3.30;3.20;;;15.90;72.50;;;;;;6221058;28;20820;-84
2023/08/05 01:31:13;;;;;;;4.23;3.90;;;16.00;72.50;;;;;;6212861;28;20243;-82
2023/08/05 01:34:16;;;;;;;4.37;3.80;;;15.90;72.60;;;;;;6214059;28;20286;-84
2023/08/05 01:37:19;;;;;;;4.03;3.83;;;15.90;72.50;;;;;;6221548;28;20723;-82
2023/08/05 01:40:28;;;;;;;4.17;3.87;;;15.90;72.50;;;;;;6229195;28;20231;-85
2023/08/05 01:43:32;;;;;;;4.00;3.70;;;15.90;72.70;;;;;;6213024;28;20657;-84
2023/08/05 01:46:35;;;;;;;3.87;3.77;;;15.80;72.70;;;;;;6237290;28;20241;-83
2023/08/05 01:49:39;;;;;;;3.70;3.50;;;15.90;72.70;;;;;;6213219;28;20246;-83
2023/08/05 01:52:42;;;;;;;4.20;3.90;;;15.80;72.70;;;;;;6230140;28;20237;-83
2023/08/05 01:55:45;;;;;;;4.60;4.40;;;15.80;72.80;;;;;;6225357;28;20244;-84
2023/08/05 01:58:50;;;;;;;4.87;4.47;;;15.80;72.90;;;;;;6222553;28;20371;-84
2023/08/05 02:01:53;;;;;;;4.70;4.50;;;15.80;72.90;;;;;;6224415;28;20265;-85
2023/08/05 02:04:56;;;;;;;6.43;4.43;;;15.80;73.00;;;;;;6228342;28;20242;-81
2023/08/05 02:07:59;;;;;;;6.17;4.70;;;15.80;73.10;;;;;;6216826;28;20247;-83
2023/08/05 02:11:03;;;;;;;4.47;4.20;;;15.80;73.20;;;;;;6221394;28;20305;-82
2023/08/05 02:14:08;;;;;;;5.27;4.97;;;15.80;73.20;;;;;;6216426;28;20234;-83
2023/08/05 02:17:11;;;;;;;4.47;4.30;;;15.80;73.50;;;;;;6233546;28;20245;-84
2023/08/05 02:20:16;;;;;;;4.53;4.33;;;15.70;73.50;;;;;;6223644;28;20235;-83
2023/08/05 02:23:25;;;;;;;6.10;4.83;;;15.60;73.60;;;;;;6218712;28;20247;-86
2023/08/05 02:26:29;;;;;;;4.70;4.40;;;15.60;73.70;;;;;;6224178;28;20234;-84
2023/08/05 02:29:33;;;;;;;5.00;4.80;;;15.60;74.00;;;;;;6223466;28;20626;-83
2023/08/05 02:32:37;;;;;;;4.80;4.50;;;15.60;74.20;;;;;;6231239;28;20265;-85
2023/08/05 02:35:40;;;;;;;5.40;4.93;;;15.50;74.30;;;;;;6240828;28;20400;-84
2023/08/05 02:38:43;;;;;;;5.30;5.00;;;15.50;74.40;;;;;;6225397;28;20818;-82
2023/08/05 02:41:48;;;;;;;6.37;5.20;;;15.50;74.50;;;;;;6233356;28;20300;-83
2023/08/05 02:44:52;;;;;;;5.97;5.43;;;15.40;74.60;;;;;;6230071;28;20238;-83
2023/08/05 02:47:55;;;;;;;6.40;5.90;;;15.40;74.90;;;;;;6224205;28;20591;-85
2023/08/05 02:50:59;;;;;;;7.80;6.17;;;15.40;74.90;;;;;;6219615;28;20249;-82
2023/08/05 02:54:02;;;;;;;6.10;5.50;;;15.40;75.10;;;;;;6230496;28;20754;-86
2023/08/05 02:57:05;;;;;;;6.27;5.87;;;15.40;75.00;;;;;;6229201;28;20242;-83
2023/08/05 03:00:12;;;;;;;7.10;6.40;;;15.40;75.20;;;;;;6230955;28;20250;-83
2023/08/05 03:03:16;;;;;;;6.47;5.67;;;15.30;75.20;;;;;;6220018;28;20239;-83
2023/08/05 03:06:19;;;;;;;6.23;5.63;;;15.30;75.40;;;;;;6225989;28;20255;-81
2023/08/05 03:09:22;;;;;;;5.87;5.47;;;15.20;75.70;;;;;;6224943;28;20254;-83
2023/08/05 03:12:25;;;;;;;7.43;5.73;;;15.10;75.90;;;;;;6216183;28;20231;-82
2023/08/05 03:15:30;;;;;;;6.00;5.50;;;15.10;76.00;;;;;;6223818;28;20241;-81
2023/08/05 03:18:34;;;;;;;6.00;5.57;;;15.10;76.00;;;;;;6231199;28;20238;-81
2023/08/05 03:21:38;;;;;;;5.53;5.23;;;15.00;76.20;;;;;;6250049;28;20231;-82
2023/08/05 03:24:41;;;;;;;5.80;5.50;;;15.00;76.30;;;;;;6212794;28;20651;-84
2023/08/05 03:27:44;;;;;;;7.13;5.77;;;15.00;76.30;;;;;;6229817;28;20234;-84
2023/08/05 03:30:48;;;;;;;6.73;6.00;;;15.00;76.50;;;;;;6236874;28;20334;-80
2023/08/05 03:33:52;;;;;;;6.60;5.50;;;14.90;76.60;;;;;;6223082;28;20890;-83
2023/08/05 03:36:55;;;;;;;6.90;6.40;;;14.90;76.60;;;;;;6236428;28;20269;-80
2023/08/05 03:39:58;;;;;;;6.97;6.43;;;14.90;76.70;;;;;;6239525;28;20270;-82
2023/08/05 03:43:02;;;;;;;6.90;6.30;;;14.80;77.00;;;;;;6234425;28;20275;-81
2023/08/05 03:46:07;;;;;;;6.47;5.97;;;14.80;77.10;;;;;;6218683;28;20238;-80
2023/08/05 03:49:10;;;;;;;7.40;6.43;;;14.70;77.10;;;;;;6223733;28;20239;-80
2023/08/05 03:52:13;;;;;;;7.20;6.60;;;14.70;77.50;;;;;;6221463;28;20246;-81
2023/08/05 03:55:17;;;;;;;7.40;6.67;;;14.70;77.50;;;;;;6224709;28;20230;-80
2023/08/05 03:58:20;;;;;;;6.00;5.60;;;14.70;77.50;;;;;;6236121;28;20280;-83
2023/08/05 04:01:26;;;;;;;6.73;6.30;;;14.70;77.60;;;;;;6224808;28;20235;-80
2023/08/05 04:04:30;;;;;;;7.10;6.60;;;14.60;77.70;;;;;;6220001;28;20239;-81
2023/08/05 04:07:33;;;;;;;5.73;5.33;;;14.60;77.80;;;;;;6223117;28;20315;-81
2023/08/05 04:10:38;;;;;;;6.50;5.93;;;14.70;77.80;;;;;;6209227;28;20234;-80
2023/08/05 04:13:44;;;;;;;6.40;6.00;;;14.60;77.80;;;;;;6230715;28;20338;-82
2023/08/05 04:16:49;;;;;;;10.00;7.07;;;14.70;77.80;;;;;;6224210;28;20243;-83
2023/08/05 04:19:52;;;;;;;6.80;6.27;;;14.70;77.80;;;;;;6231461;28;20237;-83
2023/08/05 04:22:56;;;;;;;5.77;5.40;;;14.70;77.80;;;;;;6218711;28;20256;-82
2023/08/05 04:26:00;;;;;;;5.93;5.57;;;14.80;78.00;;;;;;6222866;28;20338;-81
2023/08/05 04:29:03;;;;;;;5.07;4.83;;;14.80;78.10;;;;;;6218949;28;20318;-78
2023/08/05 04:32:09;;;;;;;6.83;5.53;;;14.80;78.00;;;;;;6223479;28;20247;-82
2023/08/05 04:35:12;;;;;;;5.67;5.30;;;14.90;78.10;;;;;;6223987;28;20335;-79
2023/08/05 04:38:15;;;;;;;5.63;5.27;;;15.00;78.00;;;;;;6224351;28;20266;-82
2023/08/05 04:41:18;;;;;;;5.47;4.97;;;15.00;78.00;;;;;;6225502;28;20357;-80
2023/08/05 04:44:26;;;;;;;5.30;5.03;;;15.00;77.90;;;;;;6227672;28;20275;-82
2023/08/05 04:47:31;;;;;;;6.13;4.77;;;15.00;77.70;;;;;;6230709;28;20247;-82
2023/08/05 04:50:37;;;;;;;5.73;5.00;;;15.20;77.70;;;;;;6228898;28;20234;-84
2023/08/05 04:53:40;;;;;;;4.93;4.73;;;15.20;77.60;;;;;;6213940;28;20259;-83
2023/08/05 04:56:43;;;;;;;5.80;5.00;;;15.30;77.50;;;;;;6216876;28;20415;-82
2023/08/05 04:59:48;;;;;;;5.40;5.10;;;15.30;77.40;;;;;;6227163;28;20234;-81
2023/08/05 05:02:53;;;;;;;6.23;5.73;;;15.40;77.40;;;;;;6215116;28;20247;-83
2023/08/05 05:05:57;;;;;;;4.43;4.33;;;15.60;77.10;;;;;;6223226;28;20235;-82
2023/08/05 05:09:00;;;;;;;5.90;5.33;;;15.60;76.90;;;;;;6225003;28;20329;-83
2023/08/05 05:12:04;;;;;;;4.97;4.73;;;15.80;76.60;;;;;;6216946;28;20893;-84
2023/08/05 05:15:08;;;;;;;5.77;5.27;;;16.00;76.00;;;;;;6220505;28;20242;-84
2023/08/05 05:18:12;;;;;;;6.00;5.33;;;16.10;75.70;;;;;;6219125;28;20242;-81
2023/08/05 05:21:15;;;;;;;4.70;4.50;;;16.30;75.00;;;;;;6227918;28;20370;-82
2023/08/05 05:24:18;;;;;;;5.03;4.80;;;16.40;74.50;;;;;;6221664;28;20273;-82
2023/08/05 05:27:22;;;;;;;5.73;5.23;;;16.50;74.40;;;;;;6234682;28;20288;-82
2023/08/05 05:30:25;;;;;;;4.90;4.50;;;16.60;74.10;;;;;;6228547;28;20262;-82
2023/08/05 05:33:29;;;;;;;4.57;4.27;;;16.60;73.80;;;;;;6217475;28;20318;-82
2023/08/05 05:36:32;;;;;;;5.10;4.80;;;16.70;73.50;;;;;;6223771;28;20262;-81
2023/08/05 05:39:36;;;;;;;6.70;4.80;;;16.80;73.40;;;;;;6220225;28;20262;-81
2023/08/05 05:42:39;;;;;;;3.97;3.77;;;16.90;73.30;;;;;;6221059;28;20724;-81
2023/08/05 05:45:42;;;;;;;4.43;4.13;;;17.00;73.00;;;;;;6225952;28;20261;-81
2023/08/05 05:48:49;;;;;;;4.23;4.03;;;17.30;72.70;;;;;;6229555;28;20321;-82
2023/08/05 05:51:52;;;;;;;4.43;4.13;;;17.50;72.10;;;;;;6218236;28;21047;-83
2023/08/05 05:54:55;;;;;;;6.07;4.77;;;17.80;71.50;;;;;;6235990;28;20276;-82
2023/08/05 05:57:58;;;;;;;5.13;4.63;;;18.00;70.10;;;;;;6226662;28;20331;-85
2023/08/05 06:01:02;;;;;;;4.07;3.87;;;18.10;69.40;;;;;;6234965;28;20401;-81
2023/08/05 06:04:09;;;;;;;4.10;3.90;;;18.40;69.00;;;;;;6233291;28;20655;-82
2023/08/05 06:07:12;;;;;;;4.50;4.10;;;18.60;67.90;;;;;;6218047;28;20374;-79
2023/08/05 06:10:15;;;;;;;4.47;3.73;;;18.80;67.30;;;;;;6220544;28;20330;-82
2023/08/05 06:13:19;;;;;;;4.47;4.07;;;18.90;67.00;;;;;;6224870;28;20239;-83
2023/08/05 06:16:22;;;;;;;4.13;3.77;;;19.00;66.60;;;;;;6228837;28;20799;-81
2023/08/05 06:19:27;;;;;;;5.23;3.93;;;19.30;65.90;;;;;;6239104;28;20305;-85
2023/08/05 06:22:30;;;;;;;4.27;4.07;;;19.50;65.20;;;;;;6223942;28;20232;-83
2023/08/05 06:25:33;;;;;;;3.90;3.60;;;19.70;64.70;;;;;;6228939;28;20755;-83
2023/08/05 06:28:41;;;;;;;4.30;3.93;;;20.00;64.10;;;;;;6221597;28;20251;-82
2023/08/05 06:31:44;;;;;;;3.27;3.17;;;19.90;63.80;;;;;;6225506;28;20238;-82
2023/08/05 06:34:49;;;;;;;4.73;4.43;;;19.70;64.40;;;;;;6222211;28;20318;-82
2023/08/05 06:37:52;;;;;;;4.07;3.67;;;19.60;64.30;;;;;;6232193;28;20239;-83
2023/08/05 06:40:55;;;;;;;4.20;4.00;;;19.40;65.00;;;;;;6231244;28;20253;-82
2023/08/05 06:43:58;;;;;;;3.90;3.70;;;19.30;65.80;;;;;;6218220;28;20851;-81
2023/08/05 06:47:02;;;;;;;4.23;3.93;;;19.20;65.40;;;;;;6221887;28;20243;-83
2023/08/05 06:50:08;;;;;;;4.20;3.90;;;19.20;65.50;;;;;;6224771;28;20244;-81
2023/08/05 06:53:11;;;;;;;4.73;4.23;;;19.10;65.90;;;;;;6225146;28;20333;-80
2023/08/05 06:56:17;;;;;;;3.80;3.70;;;19.10;66.20;;;;;;6237625;28;20242;-81
2023/08/05 06:59:20;;;;;;;3.83;3.70;;;19.10;66.50;;;;;;6223523;28;20274;-81
2023/08/05 07:02:24;;;;;;;4.23;3.90;;;19.00;66.90;;;;;;6224763;28;20286;-81
2023/08/05 07:05:29;;;;;;;4.17;3.97;;;19.00;67.40;;;;;;6221300;28;20366;-83
2023/08/05 07:08:32;;;;;;;5.00;4.60;;;19.10;67.50;;;;;;6228379;28;20262;-82
2023/08/05 07:11:36;;;;;;;5.13;4.30;;;19.20;67.80;;;;;;6223849;28;20239;-82
2023/08/05 07:14:39;;;;;;;3.97;3.77;;;19.20;67.00;;;;;;6228745;28;20716;-80
2023/08/05 07:17:42;;;;;;;4.17;3.87;;;19.10;67.20;;;;;;6229823;28;20231;-80
2023/08/05 07:20:49;;;;;;;4.83;4.43;;;19.20;67.00;;;;;;6218691;28;20243;-81
2023/08/05 07:23:53;;;;;;;4.47;4.13;;;19.40;66.60;;;;;;6219974;28;20254;-81
2023/08/05 07:26:56;;;;;;;4.60;4.20;;;19.40;66.50;;;;;;6234191;28;20760;-80
2023/08/05 07:29:59;;;;;;;4.20;3.90;;;19.30;66.60;;;;;;6230566;28;20230;-82
2023/08/05 07:33:04;;;;;;;6.00;4.53;;;19.30;66.50;;;;;;6231582;28;20306;-81
2023/08/05 07:36:15;;;;;;;4.53;4.20;;;19.40;66.20;;;;;;6229631;28;20241;-83
2023/08/05 07:39:19;;;;;;;6.00;4.73;;;19.40;66.40;;;;;;6232458;28;20242;-80
2023/08/05 07:42:25;;;;;;;4.07;3.87;;;19.50;66.00;;;;;;6226612;28;20711;-82
2023/08/05 07:45:29;;;;;;;3.93;3.63;;;19.50;66.00;;;;;;6220989;28;20845;-83
2023/08/05 07:48:35;;;;;;;4.30;3.93;;;19.60;66.30;;;;;;6231438;28;20281;-79
2023/08/05 07:51:40;;;;;;;4.47;4.17;;;19.70;66.80;;;;;;6215003;28;20234;-81
2023/08/05 07:54:43;;;;;;;4.70;4.30;;;19.80;66.30;;;;;;6225115;28;20231;-81
2023/08/05 07:57:47;;;;;;;5.77;4.60;;;19.90;66.30;;;;;;6225841;28;20681;-83
2023/08/05 08:00:55;;;;;;;4.17;3.80;;;20.00;65.70;;;;;;6220895;28;20246;-82
2023/08/05 08:04:02;;;;;;;4.10;3.80;;;20.00;65.40;;;;;;6223522;28;20241;-83
2023/08/05 08:07:08;;;;;;;4.00;3.60;;;20.00;65.60;;;;;;6227275;28;20247;-78
2023/08/05 08:10:13;;;;;;;5.10;3.73;;;20.00;65.40;;;;;;6223524;28;20233;-82
2023/08/05 08:13:16;;;;;;;4.50;4.10;;;20.10;65.70;;;;;;6230420;28;20744;-82
2023/08/05 08:16:20;;;;;;;3.30;3.10;;;20.10;64.80;;;;;;6230385;28;20253;-82
2023/08/05 08:19:33;;;;;;;4.17;3.80;;;20.10;65.40;;;;;;6222438;28;20231;-83
2023/08/05 08:22:38;;;;;;;6.40;4.13;;;20.30;65.70;;;;;;6220135;28;20341;-84
2023/08/05 08:25:41;;;;;;;6.27;3.97;;;20.50;65.70;;;;;;6226219;28;20780;-82
2023/08/05 08:28:44;;;;;;;4.23;3.77;;;20.60;64.00;;;;;;6222000;28;20296;-81
2023/08/05 08:31:47;;;;;;;3.93;3.53;;;20.60;63.30;;;;;;6228309;28;20317;-80
2023/08/05 08:34:51;;;;;;;5.07;3.87;;;20.60;63.50;;;;;;6219483;28;20258;-82
2023/08/05 08:37:55;;;;;;;5.27;4.23;;;20.60;63.50;;;;;;6219471;28;20251;-82
2023/08/05 08:40:59;;;;;;;6.43;3.87;;;20.60;63.00;;;;;;6225603;28;20239;-82
2023/08/05 08:44:06;;;;;;;4.53;4.20;;;20.50;63.70;;;;;;6220768;28;20242;-84
2023/08/05 08:47:10;;;;;;;4.30;3.57;;;20.50;63.60;;;;;;6211287;28;20239;-82
2023/08/05 08:50:17;;;;;;;4.30;3.90;;;20.60;63.50;;;;;;6216158;28;20261;-81
2023/08/05 08:53:22;;;;;;;5.97;4.07;;;20.70;62.90;;;;;;6227597;28;20329;-83
2023/08/05 08:56:28;;;;;;;4.93;3.93;;;20.80;62.80;;;;;;6225086;28;20227;-82
2023/08/05 08:59:31;;;;;;;4.17;3.97;;;20.90;63.40;;;;;;6219262;28;20318;-83
2023/08/05 09:02:36;;;;;;;4.57;4.27;;;21.00;63.20;;;;;;6222434;28;20242;-82
2023/08/05 09:05:42;;;;;;;7.43;4.10;;;21.10;62.80;;;;;;6226139;28;20231;-83
2023/08/05 09:08:47;;;;;;;4.50;4.10;;;21.30;62.70;;;;;;6222295;28;20262;-82
2023/08/05 09:11:50;;;;;;;4.73;4.23;;;21.10;62.10;;;;;;6233147;28;20678;-81
2023/08/05 09:14:54;;;;;;;4.07;3.77;;;21.10;62.10;;;;;;6218350;28;20239;-83
2023/08/05 09:17:58;;;;;;;3.13;3.03;;;21.20;61.80;;;;;;6234928;28;20356;-82
2023/08/05 09:21:02;;;;;;;4.80;3.90;;;21.50;61.80;;;;;;6221762;28;20318;-81
2023/08/05 09:24:07;;;;;;;4.43;3.63;;;21.70;59.70;;;;;;6228626;28;20242;-87
2023/08/05 09:27:10;;;;;;;4.23;3.93;;;21.70;60.40;;;;;;6218930;28;20243;-83
2023/08/05 09:30:17;;;;;;;3.87;3.50;;;21.70;59.40;;;;;;6223025;28;20235;-83
2023/08/05 09:33:28;;;;;;;4.10;3.80;;;21.70;60.10;;;;;;6225213;28;20238;-84
2023/08/05 09:36:32;;;;;;;4.37;3.97;;;22.00;59.40;;;;;;6225808;28;20231;-83
2023/08/05 09:39:53;;;;;;;3.97;3.70;;;22.10;60.00;;;;;;6224134;28;20288;-82
2023/08/05 09:42:59;;;;;;;3.77;3.47;;;22.20;58.80;;;;;;6207740;28;20315;-81
2023/08/05 09:46:04;;;;;;;5.67;3.80;;;21.90;57.80;;;;;;6237413;28;20318;-81
2023/08/05 09:49:08;;;;;;;3.50;3.37;;;22.00;58.60;;;;;;6222539;28;20270;-82
2023/08/05 09:52:12;;;;;;;3.53;3.30;;;22.00;57.60;;;;;;6227343;28;20400;-79
2023/08/05 09:55:18;;;;;;;3.37;3.10;;;21.90;57.50;;;;;;6219323;28;20239;-79
2023/08/05 09:58:23;;;;;;;4.23;3.97;;;21.70;57.40;;;;;;6216026;28;20250;-82
2023/08/05 10:01:27;;;;;;;3.60;3.43;;;21.70;57.20;;;;;;6227126;28;20747;-82
2023/08/05 10:04:30;;;;;;;3.70;3.50;;;21.90;57.70;;;;;;6234008;28;20230;-81
2023/08/05 10:07:34;;;;;;;4.27;3.17;;;22.10;57.20;;;;;;6229665;28;20262;-82
2023/08/05 10:10:40;;;;;;;3.77;3.57;;;22.30;56.90;;;;;;6207937;28;20735;-85
2023/08/05 10:13:45;;;;;;;3.70;3.50;;;22.60;57.20;;;;;;6224068;28;20740;-82
2023/08/05 10:16:50;;;;;;;3.00;2.80;;;22.80;56.50;;;;;;6233470;28;20373;-83
2023/08/05 10:19:54;;;;;;;3.43;3.23;;;22.80;55.40;;;;;;6221738;28;20330;-81
2023/08/05 10:23:04;;;;;;;3.50;3.30;;;22.70;56.10;;;;;;6216305;28;20293;-83
2023/08/05 10:26:09;;;;;;;3.00;2.80;;;22.80;55.30;;;;;;6221665;28;20250;-82
2023/08/05 10:29:28;;;;;;;3.20;3.00;;;22.90;55.60;;;;;;6228119;28;20308;-83
2023/08/05 10:32:33;;;;;;;3.50;3.40;;;23.10;55.50;;;;;;6215828;28;20243;-83
2023/08/05 10:35:42;;;;;;;4.03;3.70;;;23.10;55.70;;;;;;6224659;28;20314;-83
2023/08/05 10:38:45;;;;;;;3.47;3.37;;;23.10;55.30;;;;;;6232115;28;20614;-82
2023/08/05 10:42:31;;;;;;;4.20;3.90;;;23.10;55.70;;;;;;6224533;28;20755;-82
2023/08/05 10:45:35;;;;;;;3.50;3.30;;;23.00;55.00;;;;;;6230135;28;20231;-81
2023/08/05 10:48:40;;;;;;;3.00;2.90;;;22.70;54.80;;;;;;6226252;28;20238;-84
2023/08/05 10:51:47;;;;;;;3.57;3.40;;;22.50;55.40;;;;;;6244423;28;20219;-79
2023/08/05 10:54:52;;;;;;;4.23;3.83;;;22.30;56.10;;;;;;6272241;28;20435;-77
2023/08/05 10:57:58;;;;;;;4.07;3.40;;;22.30;56.60;;;;;;6261377;28;20307;-78
2023/08/05 11:01:03;;;;;;;3.77;3.57;;;22.10;56.80;;;;;;6266981;28;20227;-79
2023/08/05 11:04:27;;;;;;;4.03;3.83;;;22.10;56.80;;;;;;6242601;28;20220;-79
2023/08/05 11:07:31;;;;;;;4.90;4.50;;;22.20;57.70;;;;;;6257937;28;20227;-82
2023/08/05 11:10:36;;;;;;;4.07;3.77;;;22.20;56.60;;;;;;6257711;28;20226;-84
2023/08/05 11:13:46;;;;;;;3.47;3.13;;;22.40;57.10;;;;;;6257651;28;20243;-83
2023/08/05 11:16:50;;;;;;;3.43;3.33;;;22.50;56.80;;;;;;6255612;28;20277;-82
2023/08/05 11:19:54;;;;;;;3.60;3.30;;;22.20;57.20;;;;;;6261369;28;20227;-82
2023/08/05 11:23:00;;;;;;;3.27;3.07;;;22.10;57.70;;;;;;6254817;28;20226;-84
2023/08/05 11:26:04;;;;;;;4.17;3.70;;;22.30;56.50;;;;;;6265806;28;20225;-79
2023/08/05 11:29:09;;;;;;;3.87;3.67;;;22.50;56.30;;;;;;6264065;28;20227;-80
2023/08/05 11:32:12;;;;;;;3.73;3.27;;;22.60;55.70;;;;;;6266793;28;20277;-81
2023/08/05 11:35:15;;;;;;;3.47;3.27;;;22.60;55.90;;;;;;6260269;28;20218;-83
2023/08/05 11:38:20;;;;;;;2.90;2.80;;;22.60;57.00;;;;;;6268648;28;20246;-82
2023/08/05 11:41:23;;;;;;;3.20;3.10;;;22.90;56.40;;;;;;6256248;28;20235;-81
2023/08/05 11:44:28;;;;;;;3.63;3.53;;;23.20;56.90;;;;;;6244928;28;20222;-82
2023/08/05 11:47:31;;;;;;;3.43;3.33;;;23.20;55.80;;;;;;6232160;28;20826;-82
2023/08/05 11:50:35;;;;;;;3.13;3.07;;;23.20;55.10;;;;;;6237511;28;20601;-83
2023/08/05 11:53:48;;;;;;;3.50;3.20;;;23.40;55.00;;;;;;6238488;28;20720;-84
2023/08/05 11:56:51;;;;;;;3.77;3.57;;;23.60;54.50;;;;;;6236423;28;20235;-83
2023/08/05 11:59:56;;;;;;;3.40;3.20;;;23.80;54.80;;;;;;6214587;28;20286;-80
2023/08/05 12:03:01;;;;;;;3.57;3.47;;;23.90;54.30;;;;;;6228786;28;20747;-82
2023/08/05 12:06:05;;;;;;;3.23;3.13;;;23.70;53.90;;;;;;6225282;28;20235;-82
2023/08/05 12:09:08;;;;;;;3.87;3.63;;;23.50;53.60;;;;;;6223557;28;20309;-83
2023/08/05 12:12:16;;;;;;;4.37;4.17;;;23.30;54.50;;;;;;6221857;28;20239;-84
2023/08/05 12:15:24;;;;;;;3.07;2.90;;;23.00;55.30;;;;;;6227407;28;20249;-82
2023/08/05 12:18:48;;;;;;;3.77;3.57;;;23.00;55.40;;;;;;6225176;28;20589;-81
2023/08/05 12:21:51;;;;;;;4.13;3.80;;;23.00;56.10;;;;;;6227109;28;20242;-82
2023/08/05 12:24:54;;;;;;;3.33;3.13;;;23.10;56.40;;;;;;6220507;28;20246;-81
2023/08/05 12:27:59;;;;;;;3.60;3.40;;;23.10;56.30;;;;;;6233260;28;20611;-81
2023/08/05 12:31:13;;;;;;;4.57;3.60;;;23.20;55.80;;;;;;6231005;28;20879;-84
2023/08/05 12:34:18;;;;;;;4.17;3.90;;;23.40;55.50;;;;;;6224772;28;20231;-81
2023/08/05 12:37:21;;;;;;;4.13;3.63;;;23.40;55.00;;;;;;6218517;28;20350;-82
2023/08/05 12:40:24;;;;;;;3.50;3.33;;;23.50;55.00;;;;;;6232365;28;20629;-82
2023/08/05 12:43:27;;;;;;;4.30;4.00;;;23.50;55.10;;;;;;6223020;28;20232;-83
2023/08/05 12:46:33;;;;;;;3.20;3.10;;;23.40;55.00;;;;;;6214742;28;20325;-81
2023/08/05 12:49:37;;;;;;;3.47;3.27;;;23.50;55.70;;;;;;6218119;28;20242;-81
2023/08/05 12:52:40;;;;;;;3.83;3.53;;;23.50;56.90;;;;;;6220742;28;20231;-84
2023/08/05 12:55:43;;;;;;;3.87;3.77;;;23.50;55.20;;;;;;6224314;28;20230;-84
2023/08/05 12:58:46;;;;;;;3.23;3.13;;;23.40;55.60;;;;;;6227341;28;20304;-82
2023/08/05 13:01:51;;;;;;;3.40;3.30;;;23.40;54.50;;;;;;6219318;28;20238;-83
2023/08/05 13:04:56;;;;;;;4.13;3.90;;;23.40;54.80;;;;;;6224537;28;20345;-80
2023/08/05 13:07:59;;;;;;;3.63;3.53;;;23.40;56.00;;;;;;6212982;28;20721;-82
2023/08/05 13:11:02;;;;;;;3.57;3.37;;;23.50;55.20;;;;;;6227616;28;20239;-81
2023/08/05 13:14:06;;;;;;;3.70;3.50;;;23.50;55.00;;;;;;6227595;28;20237;-82
2023/08/05 13:17:10;;;;;;;3.10;3.00;;;23.50;54.80;;;;;;6228988;28;20330;-84
2023/08/05 13:20:14;;;;;;;3.30;3.20;;;23.40;54.50;;;;;;6227107;28;20243;-82
2023/08/05 13:23:17;;;;;;;3.83;3.53;;;23.30;54.80;;;;;;6230762;28;20234;-82
2023/08/05 13:26:20;;;;;;;3.40;3.30;;;23.20;55.00;;;;;;6226739;28;20234;-83
2023/08/05 13:29:23;;;;;;;3.50;3.30;;;23.00;55.70;;;;;;6227532;28;20325;-81
2023/08/05 13:32:28;;;;;;;3.90;3.70;;;22.90;56.20;;;;;;6225975;28;20254;-82
2023/08/05 13:35:34;;;;;;;4.57;3.53;;;22.80;56.40;;;;;;6227696;28;20270;-81
2023/08/05 13:38:37;;;;;;;3.83;3.40;;;22.70;55.80;;;;;;6225569;28;20266;-82
2023/08/05 13:41:40;;;;;;;3.83;3.53;;;22.60;55.70;;;;;;6217618;28;20768;-83
2023/08/05 13:44:43;;;;;;;4.13;4.03;;;22.50;56.10;;;;;;6224768;28;20227;-82
2023/08/05 13:47:51;;;;;;;4.00;3.63;;;22.30;56.70;;;;;;6223753;28;20243;-80
2023/08/05 13:51:00;;;;;;;3.73;3.60;;;22.20;56.60;;;;;;6229499;28;20312;-81
2023/08/05 13:54:03;;;;;;;3.67;3.47;;;21.90;57.20;;;;;;6214937;28;20238;-83
2023/08/05 13:57:07;;;;;;;3.87;3.70;;;21.90;56.90;;;;;;6226902;28;20557;-82
2023/08/05 14:00:11;;;;;;;3.33;3.23;;;22.00;56.90;;;;;;6224311;28;20239;-82
2023/08/05 14:03:16;;;;;;;3.83;3.63;;;22.10;57.40;;;;;;6229870;28;20230;-83
2023/08/05 14:06:19;;;;;;;3.70;3.50;;;22.30;57.50;;;;;;6208860;28;20280;-82
2023/08/05 14:09:23;;;;;;;4.00;3.77;;;22.30;57.10;;;;;;6226099;28;20242;-83
2023/08/05 14:12:26;;;;;;;4.13;3.67;;;22.30;56.00;;;;;;6230068;28;20234;-81
2023/08/05 14:15:34;;;;;;;4.17;3.83;;;22.20;56.50;;;;;;6223533;28;20811;-81
2023/08/05 14:18:39;;;;;;;3.53;3.40;;;22.20;57.10;;;;;;6228968;28;20246;-80
2023/08/05 14:21:42;;;;;;;3.37;3.07;;;22.10;57.40;;;;;;6226892;28;20262;-80
2023/08/05 14:24:45;;;;;;;3.60;3.40;;;22.10;57.40;;;;;;6230700;28;20234;-83
2023/08/05 14:27:49;;;;;;;3.37;3.20;;;22.00;57.60;;;;;;6242914;28;20870;-82
2023/08/05 14:30:54;;;;;;;3.67;3.37;;;22.00;57.60;;;;;;6226439;28;20798;-82
2023/08/05 14:33:59;;;;;;;4.70;3.20;;;22.10;56.70;;;;;;6224122;28;20250;-83
2023/08/05 14:37:02;;;;;;;3.17;3.03;;;22.00;56.50;;;;;;6232104;28;20260;-80
2023/08/05 14:40:07;;;;;;;3.40;3.30;;;22.10;56.90;;;;;;6223498;28;20784;-81
2023/08/05 14:43:10;;;;;;;3.37;3.27;;;22.20;57.50;;;;;;6226333;28;20586;-85
2023/08/05 14:46:13;;;;;;;3.63;3.43;;;22.30;57.40;;;;;;6218752;28;20251;-84
2023/08/05 14:49:18;;;;;;;3.97;3.67;;;22.40;57.30;;;;;;6216918;28;20242;-80
2023/08/05 14:52:21;;;;;;;3.47;3.37;;;22.40;57.60;;;;;;6223054;28;20239;-83
2023/08/05 14:55:24;;;;;;;3.33;3.23;;;22.40;56.70;;;;;;6230593;28;20324;-80
2023/08/05 14:58:30;;;;;;;3.47;3.37;;;22.30;57.40;;;;;;6228325;28;20240;-82
2023/08/05 15:01:33;;;;;;;3.50;3.30;;;22.30;57.80;;;;;;6220780;28;20242;-83
2023/08/05 15:04:38;;;;;;;5.03;3.63;;;22.20;56.70;;;;;;6218944;28;20241;-82
2023/08/05 15:07:41;;;;;;;4.43;4.03;;;22.10;56.60;;;;;;6219378;28;20239;-82
2023/08/05 15:10:44;;;;;;;4.50;4.20;;;22.10;56.80;;;;;;6229163;28;20761;-83
2023/08/05 15:13:48;;;;;;;4.07;3.73;;;22.10;57.50;;;;;;6228070;28;20747;-82
2023/08/05 15:16:51;;;;;;;4.80;4.50;;;22.10;57.90;;;;;;6226792;28;20281;-81
2023/08/05 15:19:55;;;;;;;4.00;3.80;;;22.10;57.20;;;;;;6224199;28;20296;-81
2023/08/05 15:22:58;;;;;;;4.10;3.80;;;22.10;57.30;;;;;;6229085;28;20258;-81
2023/08/05 15:26:03;;;;;;;4.57;4.27;;;22.10;57.50;;;;;;6227069;28;20239;-83
2023/08/05 15:29:06;;;;;;;4.03;3.73;;;22.20;57.10;;;;;;6219321;28;20231;-78
2023/08/05 15:32:10;;;;;;;4.87;4.47;;;22.20;57.00;;;;;;6224331;28;20235;-80
2023/08/05 15:35:15;;;;;;;3.97;3.77;;;22.20;57.80;;;;;;6220967;28;20618;-77
2023/08/05 15:38:18;;;;;;;3.33;3.03;;;22.20;58.60;;;;;;6227286;28;20243;-82
2023/08/05 15:41:21;;;;;;;3.70;3.50;;;22.30;57.30;;;;;;6224389;28;20259;-84
2023/08/05 15:44:24;;;;;;;3.33;3.13;;;22.30;57.00;;;;;;6229366;28;20866;-83
2023/08/05 15:47:28;;;;;;;3.70;3.60;;;22.20;57.10;;;;;;6215326;28;20242;-80
2023/08/05 15:50:33;;;;;;;4.03;3.77;;;22.20;56.80;;;;;;6230649;28;20238;-82
2023/08/05 15:53:36;;;;;;;3.43;3.33;;;22.20;56.90;;;;;;6221397;28;20242;-83
2023/08/05 15:56:39;;;;;;;3.70;3.40;;;22.20;57.80;;;;;;6225745;28;20258;-81
2023/08/05 15:59:43;;;;;;;3.10;3.00;;;22.20;58.10;;;;;;6227705;28;20238;-82
2023/08/05 16:02:48;;;;;;;3.70;3.50;;;22.20;57.90;;;;;;6214789;28;20250;-81